sensor_id;sensor_type;location;lat;lon;timestamp;P1;durP1;ratioP1;P2;durP2;ratioP2
5297;SDS011;14738;42.668;23.250;2024-02-23T00:01:44;16.90;;;13.60;;
5297;SDS011;14738;42.668;23.250;2024-02-23T00:04:09;14.17;;;10.60;;
5297;SDS011;14738;42.668;23.250;2024-02-23T00:06:35;12.70;;;10.30;;
5297;SDS011;14738;42.668;23.250;2024-02-23T00:09:00;12.87;;;10.77;;
5297;SDS011;14738;42.668;23.250;2024-02-23T00:11:26;11.33;;;9.50;;
5297;SDS011;14738;42.668;23.250;2024-02-23T00:13:53;11.63;;;9.27;;
5297;SDS011;14738;42.668;23.250;2024-02-23T00:16:19;10.20;;;9.13;;
5297;SDS011;14738;42.668;23.250;2024-02-23T00:18:44;15.13;;;9.80;;
5297;SDS011;14738;42.668;23.250;2024-02-23T00:21:10;14.77;;;10.80;;
5297;SDS011;14738;42.668;23.250;2024-02-23T00:23:35;13.43;;;11.17;;
5297;SDS011;14738;42.668;23.250;2024-02-23T00:26:01;17.73;;;11.80;;
5297;SDS011;14738;42.668;23.250;2024-02-23T00:28:26;16.53;;;11.50;;
5297;SDS011;14738;42.668;23.250;2024-02-23T00:30:52;14.60;;;11.97;;
5297;SDS011;14738;42.668;23.250;2024-02-23T00:33:18;18.23;;;12.10;;
5297;SDS011;14738;42.668;23.250;2024-02-23T00:35:43;16.80;;;12.30;;
5297;SDS011;14738;42.668;23.250;2024-02-23T00:38:09;17.43;;;11.07;;
5297;SDS011;14738;42.668;23.250;2024-02-23T00:40:34;14.30;;;11.50;;
5297;SDS011;14738;42.668;23.250;2024-02-23T00:43:00;22.50;;;13.67;;
5297;SDS011;14738;42.668;23.250;2024-02-23T00:45:26;23.50;;;14.50;;
5297;SDS011;14738;42.668;23.250;2024-02-23T00:47:51;24.70;;;14.60;;
5297;SDS011;14738;42.668;23.250;2024-02-23T00:50:17;23.80;;;15.07;;
5297;SDS011;14738;42.668;23.250;2024-02-23T00:52:42;24.70;;;15.17;;
5297;SDS011;14738;42.668;23.250;2024-02-23T00:55:08;23.73;;;14.77;;
5297;SDS011;14738;42.668;23.250;2024-02-23T00:57:34;27.07;;;15.80;;
5297;SDS011;14738;42.668;23.250;2024-02-23T01:00:00;22.43;;;15.23;;
5297;SDS011;14738;42.668;23.250;2024-02-23T01:02:27;23.70;;;14.80;;
5297;SDS011;14738;42.668;23.250;2024-02-23T01:04:53;21.90;;;14.70;;
5297;SDS011;14738;42.668;23.250;2024-02-23T01:07:23;22.27;;;14.60;;
5297;SDS011;14738;42.668;23.250;2024-02-23T01:09:49;18.43;;;13.47;;
5297;SDS011;14738;42.668;23.250;2024-02-23T01:12:15;24.27;;;16.20;;
5297;SDS011;14738;42.668;23.250;2024-02-23T01:14:40;37.60;;;18.00;;
5297;SDS011;14738;42.668;23.250;2024-02-23T01:17:06;36.10;;;18.60;;
5297;SDS011;14738;42.668;23.250;2024-02-23T01:19:31;27.50;;;16.90;;
5297;SDS011;14738;42.668;23.250;2024-02-23T01:21:56;30.40;;;15.50;;
5297;SDS011;14738;42.668;23.250;2024-02-23T01:24:27;26.83;;;16.40;;
5297;SDS011;14738;42.668;23.250;2024-02-23T01:26:54;30.57;;;15.97;;
5297;SDS011;14738;42.668;23.250;2024-02-23T01:29:20;21.03;;;13.60;;
5297;SDS011;14738;42.668;23.250;2024-02-23T01:31:47;22.40;;;13.07;;
5297;SDS011;14738;42.668;23.250;2024-02-23T01:34:13;21.50;;;14.17;;
5297;SDS011;14738;42.668;23.250;2024-02-23T01:36:38;16.90;;;12.53;;
5297;SDS011;14738;42.668;23.250;2024-02-23T01:39:04;18.50;;;11.83;;
5297;SDS011;14738;42.668;23.250;2024-02-23T01:41:29;15.80;;;11.10;;
5297;SDS011;14738;42.668;23.250;2024-02-23T01:43:55;13.23;;;9.87;;
5297;SDS011;14738;42.668;23.250;2024-02-23T01:46:20;14.70;;;10.53;;
5297;SDS011;14738;42.668;23.250;2024-02-23T01:48:46;16.73;;;9.73;;
5297;SDS011;14738;42.668;23.250;2024-02-23T01:51:12;14.17;;;10.17;;
5297;SDS011;14738;42.668;23.250;2024-02-23T01:53:37;11.57;;;8.90;;
5297;SDS011;14738;42.668;23.250;2024-02-23T01:56:04;13.33;;;10.80;;
5297;SDS011;14738;42.668;23.250;2024-02-23T01:58:30;12.33;;;9.80;;
5297;SDS011;14738;42.668;23.250;2024-02-23T02:00:56;11.97;;;10.07;;
5297;SDS011;14738;42.668;23.250;2024-02-23T02:03:22;10.77;;;9.00;;
5297;SDS011;14738;42.668;23.250;2024-02-23T02:05:47;11.90;;;9.03;;
5297;SDS011;14738;42.668;23.250;2024-02-23T02:08:14;10.40;;;9.30;;
5297;SDS011;14738;42.668;23.250;2024-02-23T02:10:40;10.83;;;9.30;;
5297;SDS011;14738;42.668;23.250;2024-02-23T02:13:07;11.73;;;9.80;;
5297;SDS011;14738;42.668;23.250;2024-02-23T02:15:33;15.00;;;10.60;;
5297;SDS011;14738;42.668;23.250;2024-02-23T02:17:58;12.47;;;10.30;;
5297;SDS011;14738;42.668;23.250;2024-02-23T02:20:24;14.73;;;10.83;;
5297;SDS011;14738;42.668;23.250;2024-02-23T02:22:51;15.73;;;10.63;;
5297;SDS011;14738;42.668;23.250;2024-02-23T02:25:17;13.00;;;10.40;;
5297;SDS011;14738;42.668;23.250;2024-02-23T02:27:42;12.40;;;10.67;;
5297;SDS011;14738;42.668;23.250;2024-02-23T02:30:10;13.53;;;11.33;;
5297;SDS011;14738;42.668;23.250;2024-02-23T02:32:36;16.17;;;11.10;;
5297;SDS011;14738;42.668;23.250;2024-02-23T02:35:02;14.80;;;10.30;;
5297;SDS011;14738;42.668;23.250;2024-02-23T02:37:27;14.03;;;10.10;;
5297;SDS011;14738;42.668;23.250;2024-02-23T02:39:53;15.90;;;10.10;;
5297;SDS011;14738;42.668;23.250;2024-02-23T02:42:18;10.30;;;8.83;;
5297;SDS011;14738;42.668;23.250;2024-02-23T02:44:43;10.40;;;9.30;;
5297;SDS011;14738;42.668;23.250;2024-02-23T02:47:09;12.40;;;9.50;;
5297;SDS011;14738;42.668;23.250;2024-02-23T02:49:34;10.57;;;9.17;;
5297;SDS011;14738;42.668;23.250;2024-02-23T02:51:59;11.53;;;9.03;;
5297;SDS011;14738;42.668;23.250;2024-02-23T02:54:25;10.90;;;8.87;;
5297;SDS011;14738;42.668;23.250;2024-02-23T02:56:50;12.40;;;9.27;;
5297;SDS011;14738;42.668;23.250;2024-02-23T02:59:19;13.57;;;9.90;;
5297;SDS011;14738;42.668;23.250;2024-02-23T03:01:44;10.50;;;9.47;;
5297;SDS011;14738;42.668;23.250;2024-02-23T03:04:11;11.70;;;9.30;;
5297;SDS011;14738;42.668;23.250;2024-02-23T03:06:37;12.67;;;9.30;;
5297;SDS011;14738;42.668;23.250;2024-02-23T03:09:02;10.43;;;8.73;;
5297;SDS011;14738;42.668;23.250;2024-02-23T03:11:28;13.67;;;9.90;;
5297;SDS011;14738;42.668;23.250;2024-02-23T03:13:53;10.20;;;8.10;;
5297;SDS011;14738;42.668;23.250;2024-02-23T03:16:19;10.73;;;9.03;;
5297;SDS011;14738;42.668;23.250;2024-02-23T03:18:49;9.47;;;8.30;;
5297;SDS011;14738;42.668;23.250;2024-02-23T03:21:16;9.90;;;8.90;;
5297;SDS011;14738;42.668;23.250;2024-02-23T03:23:41;12.40;;;8.90;;
5297;SDS011;14738;42.668;23.250;2024-02-23T03:26:07;9.60;;;8.60;;
5297;SDS011;14738;42.668;23.250;2024-02-23T03:28:33;12.80;;;9.10;;
5297;SDS011;14738;42.668;23.250;2024-02-23T03:30:59;12.67;;;9.77;;
5297;SDS011;14738;42.668;23.250;2024-02-23T03:33:25;16.77;;;11.77;;
5297;SDS011;14738;42.668;23.250;2024-02-23T03:35:50;13.47;;;10.00;;
5297;SDS011;14738;42.668;23.250;2024-02-23T03:38:16;12.20;;;10.27;;
5297;SDS011;14738;42.668;23.250;2024-02-23T03:40:41;14.30;;;10.87;;
5297;SDS011;14738;42.668;23.250;2024-02-23T03:43:07;10.97;;;9.37;;
5297;SDS011;14738;42.668;23.250;2024-02-23T03:45:32;11.13;;;10.03;;
5297;SDS011;14738;42.668;23.250;2024-02-23T03:47:58;11.63;;;9.27;;
5297;SDS011;14738;42.668;23.250;2024-02-23T03:50:24;14.80;;;11.00;;
5297;SDS011;14738;42.668;23.250;2024-02-23T03:52:49;13.87;;;10.83;;
5297;SDS011;14738;42.668;23.250;2024-02-23T03:55:15;15.57;;;12.47;;
5297;SDS011;14738;42.668;23.250;2024-02-23T03:57:40;15.00;;;12.40;;
5297;SDS011;14738;42.668;23.250;2024-02-23T04:00:06;13.10;;;11.47;;
5297;SDS011;14738;42.668;23.250;2024-02-23T04:02:32;15.33;;;12.50;;
5297;SDS011;14738;42.668;23.250;2024-02-23T04:04:58;18.63;;;14.23;;
5297;SDS011;14738;42.668;23.250;2024-02-23T04:07:24;22.37;;;15.77;;
5297;SDS011;14738;42.668;23.250;2024-02-23T04:09:49;22.50;;;17.87;;
5297;SDS011;14738;42.668;23.250;2024-02-23T04:12:19;17.50;;;14.40;;
5297;SDS011;14738;42.668;23.250;2024-02-23T04:14:48;18.50;;;14.50;;
5297;SDS011;14738;42.668;23.250;2024-02-23T04:17:13;16.63;;;13.60;;
5297;SDS011;14738;42.668;23.250;2024-02-23T04:19:40;15.93;;;13.00;;
5297;SDS011;14738;42.668;23.250;2024-02-23T04:22:06;15.47;;;11.50;;
5297;SDS011;14738;42.668;23.250;2024-02-23T04:24:33;19.40;;;14.00;;
5297;SDS011;14738;42.668;23.250;2024-02-23T04:26:59;16.17;;;12.83;;
5297;SDS011;14738;42.668;23.250;2024-02-23T04:29:24;16.70;;;12.87;;
5297;SDS011;14738;42.668;23.250;2024-02-23T04:31:50;15.53;;;12.47;;
5297;SDS011;14738;42.668;23.250;2024-02-23T04:34:15;18.67;;;13.27;;
5297;SDS011;14738;42.668;23.250;2024-02-23T04:36:41;17.50;;;13.00;;
5297;SDS011;14738;42.668;23.250;2024-02-23T04:39:07;17.10;;;13.13;;
5297;SDS011;14738;42.668;23.250;2024-02-23T04:41:32;17.63;;;12.33;;
5297;SDS011;14738;42.668;23.250;2024-02-23T04:43:58;16.27;;;12.63;;
5297;SDS011;14738;42.668;23.250;2024-02-23T04:46:25;15.73;;;12.30;;
5297;SDS011;14738;42.668;23.250;2024-02-23T04:48:51;15.03;;;11.93;;
5297;SDS011;14738;42.668;23.250;2024-02-23T04:51:17;15.63;;;11.97;;
5297;SDS011;14738;42.668;23.250;2024-02-23T04:53:42;13.33;;;10.50;;
5297;SDS011;14738;42.668;23.250;2024-02-23T04:56:08;14.60;;;11.33;;
5297;SDS011;14738;42.668;23.250;2024-02-23T04:58:33;14.37;;;11.30;;
5297;SDS011;14738;42.668;23.250;2024-02-23T05:00:59;14.50;;;10.53;;
5297;SDS011;14738;42.668;23.250;2024-02-23T05:03:25;18.57;;;12.27;;
5297;SDS011;14738;42.668;23.250;2024-02-23T05:05:50;12.47;;;10.73;;
5297;SDS011;14738;42.668;23.250;2024-02-23T05:08:19;17.10;;;12.57;;
5297;SDS011;14738;42.668;23.250;2024-02-23T05:10:45;13.57;;;10.37;;
5297;SDS011;14738;42.668;23.250;2024-02-23T05:13:11;16.27;;;12.43;;
5297;SDS011;14738;42.668;23.250;2024-02-23T05:15:37;14.20;;;11.70;;
5297;SDS011;14738;42.668;23.250;2024-02-23T05:18:02;15.43;;;11.93;;
5297;SDS011;14738;42.668;23.250;2024-02-23T05:20:28;15.70;;;12.33;;
5297;SDS011;14738;42.668;23.250;2024-02-23T05:22:53;18.53;;;12.30;;
5297;SDS011;14738;42.668;23.250;2024-02-23T05:25:19;16.00;;;12.20;;
5297;SDS011;14738;42.668;23.250;2024-02-23T05:27:44;16.00;;;12.17;;
5297;SDS011;14738;42.668;23.250;2024-02-23T05:30:10;15.03;;;11.73;;
5297;SDS011;14738;42.668;23.250;2024-02-23T05:32:36;20.57;;;12.50;;
5297;SDS011;14738;42.668;23.250;2024-02-23T05:35:01;16.47;;;12.37;;
5297;SDS011;14738;42.668;23.250;2024-02-23T05:37:27;22.90;;;15.07;;
5297;SDS011;14738;42.668;23.250;2024-02-23T05:39:52;25.60;;;17.87;;
5297;SDS011;14738;42.668;23.250;2024-02-23T05:42:18;34.40;;;24.70;;
5297;SDS011;14738;42.668;23.250;2024-02-23T05:44:44;28.27;;;19.00;;
5297;SDS011;14738;42.668;23.250;2024-02-23T05:47:16;20.83;;;12.97;;
5297;SDS011;14738;42.668;23.250;2024-02-23T06:01:24;25.73;;;15.90;;
5297;SDS011;14738;42.668;23.250;2024-02-23T06:03:49;17.30;;;13.93;;
5297;SDS011;14738;42.668;23.250;2024-02-23T06:06:23;20.10;;;15.30;;
5297;SDS011;14738;42.668;23.250;2024-02-23T06:08:48;20.43;;;16.90;;
5297;SDS011;14738;42.668;23.250;2024-02-23T06:11:14;24.53;;;16.00;;
5297;SDS011;14738;42.668;23.250;2024-02-23T06:13:40;18.97;;;15.20;;
5297;SDS011;14738;42.668;23.250;2024-02-23T06:16:13;19.13;;;14.33;;
5297;SDS011;14738;42.668;23.250;2024-02-23T06:18:38;19.37;;;14.43;;
5297;SDS011;14738;42.668;23.250;2024-02-23T06:25:57;14.57;;;12.63;;
5297;SDS011;14738;42.668;23.250;2024-02-23T06:28:22;13.90;;;12.20;;
5297;SDS011;14738;42.668;23.250;2024-02-23T06:30:48;16.07;;;12.30;;
5297;SDS011;14738;42.668;23.250;2024-02-23T06:33:13;24.67;;;14.10;;
5297;SDS011;14738;42.668;23.250;2024-02-23T06:35:39;16.60;;;13.63;;
5297;SDS011;14738;42.668;23.250;2024-02-23T06:38:04;18.70;;;14.13;;
5297;SDS011;14738;42.668;23.250;2024-02-23T06:40:30;21.50;;;14.10;;
5297;SDS011;14738;42.668;23.250;2024-02-23T06:42:56;29.40;;;18.80;;
5297;SDS011;14738;42.668;23.250;2024-02-23T06:45:21;33.13;;;21.80;;
5297;SDS011;14738;42.668;23.250;2024-02-23T06:47:50;21.80;;;16.00;;
5297;SDS011;14738;42.668;23.250;2024-02-23T06:50:16;31.50;;;18.20;;
5297;SDS011;14738;42.668;23.250;2024-02-23T06:52:41;15.10;;;11.63;;
5297;SDS011;14738;42.668;23.250;2024-02-23T06:55:06;13.83;;;10.93;;
5297;SDS011;14738;42.668;23.250;2024-02-23T06:57:33;12.20;;;10.40;;
5297;SDS011;14738;42.668;23.250;2024-02-23T06:59:58;14.50;;;11.27;;
5297;SDS011;14738;42.668;23.250;2024-02-23T07:02:23;16.00;;;12.70;;
5297;SDS011;14738;42.668;23.250;2024-02-23T07:04:49;14.43;;;11.57;;
5297;SDS011;14738;42.668;23.250;2024-02-23T07:07:14;16.13;;;11.10;;
5297;SDS011;14738;42.668;23.250;2024-02-23T07:16:55;15.93;;;13.15;;
5297;SDS011;14738;42.668;23.250;2024-02-23T07:19:20;17.03;;;12.30;;
5297;SDS011;14738;42.668;23.250;2024-02-23T07:21:46;13.50;;;11.60;;
5297;SDS011;14738;42.668;23.250;2024-02-23T07:24:11;13.90;;;12.23;;
5297;SDS011;14738;42.668;23.250;2024-02-23T07:26:38;10.97;;;9.87;;
5297;SDS011;14738;42.668;23.250;2024-02-23T07:29:03;10.30;;;9.10;;
5297;SDS011;14738;42.668;23.250;2024-02-23T07:31:29;12.63;;;10.17;;
5297;SDS011;14738;42.668;23.250;2024-02-23T07:33:54;14.73;;;11.87;;
5297;SDS011;14738;42.668;23.250;2024-02-23T07:36:19;13.93;;;10.30;;
5297;SDS011;14738;42.668;23.250;2024-02-23T07:38:45;11.70;;;9.87;;
5297;SDS011;14738;42.668;23.250;2024-02-23T07:41:11;17.30;;;11.73;;
5297;SDS011;14738;42.668;23.250;2024-02-23T07:43:38;18.47;;;11.30;;
5297;SDS011;14738;42.668;23.250;2024-02-23T07:46:04;14.90;;;11.20;;
5297;SDS011;14738;42.668;23.250;2024-02-23T07:48:30;13.47;;;10.70;;
5297;SDS011;14738;42.668;23.250;2024-02-23T07:50:55;14.27;;;11.30;;
5297;SDS011;14738;42.668;23.250;2024-02-23T07:53:21;15.37;;;10.93;;
5297;SDS011;14738;42.668;23.250;2024-02-23T07:55:46;14.90;;;11.47;;
5297;SDS011;14738;42.668;23.250;2024-02-23T07:58:11;17.20;;;11.90;;
5297;SDS011;14738;42.668;23.250;2024-02-23T08:00:37;18.63;;;12.57;;
5297;SDS011;14738;42.668;23.250;2024-02-23T08:03:03;25.53;;;11.33;;
5297;SDS011;14738;42.668;23.250;2024-02-23T08:05:29;16.10;;;11.87;;
5297;SDS011;14738;42.668;23.250;2024-02-23T08:07:54;14.43;;;10.73;;
5297;SDS011;14738;42.668;23.250;2024-02-23T08:10:20;13.63;;;11.07;;
5297;SDS011;14738;42.668;23.250;2024-02-23T08:12:46;17.50;;;12.00;;
5297;SDS011;14738;42.668;23.250;2024-02-23T08:15:11;18.17;;;13.83;;
5297;SDS011;14738;42.668;23.250;2024-02-23T08:17:37;16.73;;;11.90;;
5297;SDS011;14738;42.668;23.250;2024-02-23T08:20:02;20.20;;;15.57;;
5297;SDS011;14738;42.668;23.250;2024-02-23T08:22:29;18.83;;;12.52;;
5297;SDS011;14738;42.668;23.250;2024-02-23T08:24:54;15.97;;;13.53;;
5297;SDS011;14738;42.668;23.250;2024-02-23T08:27:20;16.67;;;13.57;;
5297;SDS011;14738;42.668;23.250;2024-02-23T08:29:45;17.50;;;13.60;;
5297;SDS011;14738;42.668;23.250;2024-02-23T08:32:10;21.50;;;13.27;;
5297;SDS011;14738;42.668;23.250;2024-02-23T08:34:36;17.37;;;13.77;;
5297;SDS011;14738;42.668;23.250;2024-02-23T08:37:01;18.90;;;14.60;;
5297;SDS011;14738;42.668;23.250;2024-02-23T08:39:27;15.40;;;12.90;;
5297;SDS011;14738;42.668;23.250;2024-02-23T08:44:18;22.40;;;12.77;;
5297;SDS011;14738;42.668;23.250;2024-02-23T08:46:44;16.30;;;12.83;;
5297;SDS011;14738;42.668;23.250;2024-02-23T08:49:09;15.37;;;12.47;;
5297;SDS011;14738;42.668;23.250;2024-02-23T08:51:35;15.13;;;12.63;;
5297;SDS011;14738;42.668;23.250;2024-02-23T08:54:00;20.13;;;12.93;;
5297;SDS011;14738;42.668;23.250;2024-02-23T08:56:30;12.83;;;10.50;;
5297;SDS011;14738;42.668;23.250;2024-02-23T08:58:57;19.60;;;10.67;;
5297;SDS011;14738;42.668;23.250;2024-02-23T09:01:25;10.70;;;9.60;;
5297;SDS011;14738;42.668;23.250;2024-02-23T09:03:51;10.97;;;9.90;;
5297;SDS011;14738;42.668;23.250;2024-02-23T09:06:17;11.83;;;10.53;;
5297;SDS011;14738;42.668;23.250;2024-02-23T09:08:42;15.40;;;11.00;;
5297;SDS011;14738;42.668;23.250;2024-02-23T09:11:08;11.90;;;7.53;;
5297;SDS011;14738;42.668;23.250;2024-02-23T09:13:36;9.90;;;7.60;;
5297;SDS011;14738;42.668;23.250;2024-02-23T09:16:02;8.63;;;7.83;;
5297;SDS011;14738;42.668;23.250;2024-02-23T09:18:28;8.57;;;7.60;;
5297;SDS011;14738;42.668;23.250;2024-02-23T09:20:54;9.87;;;6.70;;
5297;SDS011;14738;42.668;23.250;2024-02-23T09:23:19;8.93;;;6.90;;
5297;SDS011;14738;42.668;23.250;2024-02-23T09:25:45;14.70;;;7.17;;
5297;SDS011;14738;42.668;23.250;2024-02-23T09:28:10;8.67;;;6.70;;
5297;SDS011;14738;42.668;23.250;2024-02-23T09:30:36;8.90;;;6.50;;
5297;SDS011;14738;42.668;23.250;2024-02-23T09:33:02;19.67;;;6.37;;
5297;SDS011;14738;42.668;23.250;2024-02-23T09:35:28;7.97;;;6.90;;
5297;SDS011;14738;42.668;23.250;2024-02-23T09:37:53;10.80;;;6.17;;
5297;SDS011;14738;42.668;23.250;2024-02-23T09:40:19;6.00;;;5.43;;
5297;SDS011;14738;42.668;23.250;2024-02-23T09:42:48;9.00;;;8.10;;
5297;SDS011;14738;42.668;23.250;2024-02-23T09:45:21;8.40;;;6.70;;
5297;SDS011;14738;42.668;23.250;2024-02-23T09:47:47;7.23;;;6.50;;
5297;SDS011;14738;42.668;23.250;2024-02-23T09:50:13;6.03;;;5.53;;
5297;SDS011;14738;42.668;23.250;2024-02-23T09:52:40;7.13;;;4.90;;
5297;SDS011;14738;42.668;23.250;2024-02-23T09:55:05;5.90;;;5.27;;
5297;SDS011;14738;42.668;23.250;2024-02-23T09:57:31;8.17;;;4.93;;
5297;SDS011;14738;42.668;23.250;2024-02-23T09:59:56;6.30;;;5.70;;
5297;SDS011;14738;42.668;23.250;2024-02-23T10:02:22;7.53;;;4.87;;
5297;SDS011;14738;42.668;23.250;2024-02-23T10:04:48;5.37;;;4.87;;
5297;SDS011;14738;42.668;23.250;2024-02-23T10:07:16;4.17;;;3.87;;
5297;SDS011;14738;42.668;23.250;2024-02-23T10:09:42;4.10;;;3.80;;
5297;SDS011;14738;42.668;23.250;2024-02-23T10:12:07;3.70;;;3.40;;
5297;SDS011;14738;42.668;23.250;2024-02-23T10:14:33;8.53;;;4.60;;
5297;SDS011;14738;42.668;23.250;2024-02-23T10:16:58;3.43;;;3.23;;
5297;SDS011;14738;42.668;23.250;2024-02-23T10:19:24;3.77;;;3.30;;
5297;SDS011;14738;42.668;23.250;2024-02-23T10:21:54;4.17;;;3.77;;
5297;SDS011;14738;42.668;23.250;2024-02-23T10:24:19;5.80;;;3.70;;
5297;SDS011;14738;42.668;23.250;2024-02-23T10:26:45;7.10;;;3.60;;
5297;SDS011;14738;42.668;23.250;2024-02-23T10:29:10;4.40;;;4.10;;
5297;SDS011;14738;42.668;23.250;2024-02-23T10:31:36;3.77;;;3.47;;
5297;SDS011;14738;42.668;23.250;2024-02-23T10:34:04;3.80;;;3.40;;
5297;SDS011;14738;42.668;23.250;2024-02-23T10:36:42;3.23;;;3.03;;
5297;SDS011;14738;42.668;23.250;2024-02-23T10:39:08;3.07;;;2.87;;
5297;SDS011;14738;42.668;23.250;2024-02-23T10:41:35;3.43;;;3.13;;
5297;SDS011;14738;42.668;23.250;2024-02-23T10:44:04;5.37;;;3.80;;
5297;SDS011;14738;42.668;23.250;2024-02-23T10:46:31;4.13;;;3.77;;
5297;SDS011;14738;42.668;23.250;2024-02-23T10:48:57;3.60;;;3.30;;
5297;SDS011;14738;42.668;23.250;2024-02-23T10:51:24;4.23;;;3.40;;
5297;SDS011;14738;42.668;23.250;2024-02-23T10:53:50;3.43;;;3.23;;
5297;SDS011;14738;42.668;23.250;2024-02-23T10:56:17;3.33;;;3.00;;
5297;SDS011;14738;42.668;23.250;2024-02-23T10:58:43;6.53;;;3.43;;
5297;SDS011;14738;42.668;23.250;2024-02-23T11:01:08;3.47;;;3.23;;
5297;SDS011;14738;42.668;23.250;2024-02-23T11:03:35;5.00;;;3.10;;
5297;SDS011;14738;42.668;23.250;2024-02-23T11:06:02;3.47;;;3.27;;
5297;SDS011;14738;42.668;23.250;2024-02-23T11:08:35;2.97;;;2.77;;
5297;SDS011;14738;42.668;23.250;2024-02-23T11:11:07;6.03;;;3.20;;
5297;SDS011;14738;42.668;23.250;2024-02-23T11:13:36;3.90;;;3.60;;
5297;SDS011;14738;42.668;23.250;2024-02-23T11:16:03;3.37;;;2.90;;
5297;SDS011;14738;42.668;23.250;2024-02-23T11:18:29;2.80;;;2.60;;
5297;SDS011;14738;42.668;23.250;2024-02-23T11:20:55;6.53;;;3.10;;
5297;SDS011;14738;42.668;23.250;2024-02-23T11:23:23;3.13;;;2.93;;
5297;SDS011;14738;42.668;23.250;2024-02-23T11:26:04;2.60;;;2.50;;
5297;SDS011;14738;42.668;23.250;2024-02-23T11:28:31;2.80;;;2.60;;
5297;SDS011;14738;42.668;23.250;2024-02-23T11:30:57;2.93;;;2.70;;
5297;SDS011;14738;42.668;23.250;2024-02-23T11:33:27;2.53;;;2.37;;
5297;SDS011;14738;42.668;23.250;2024-02-23T11:36:06;3.40;;;3.20;;
5297;SDS011;14738;42.668;23.250;2024-02-23T11:38:32;3.00;;;2.90;;
5297;SDS011;14738;42.668;23.250;2024-02-23T11:40:59;3.03;;;2.73;;
5297;SDS011;14738;42.668;23.250;2024-02-23T11:43:26;2.80;;;2.60;;
5297;SDS011;14738;42.668;23.250;2024-02-23T11:45:52;4.50;;;2.53;;
5297;SDS011;14738;42.668;23.250;2024-02-23T11:48:18;2.83;;;2.73;;
5297;SDS011;14738;42.668;23.250;2024-02-23T11:50:43;3.00;;;2.80;;
5297;SDS011;14738;42.668;23.250;2024-02-23T11:53:09;2.70;;;2.60;;
5297;SDS011;14738;42.668;23.250;2024-02-23T11:55:34;3.07;;;2.80;;
5297;SDS011;14738;42.668;23.250;2024-02-23T11:58:00;3.47;;;2.60;;
5297;SDS011;14738;42.668;23.250;2024-02-23T12:00:25;2.50;;;2.30;;
5297;SDS011;14738;42.668;23.250;2024-02-23T12:02:51;3.00;;;2.67;;
5297;SDS011;14738;42.668;23.250;2024-02-23T12:05:16;4.93;;;2.73;;
5297;SDS011;14738;42.668;23.250;2024-02-23T12:07:42;2.37;;;2.27;;
5297;SDS011;14738;42.668;23.250;2024-02-23T12:10:08;3.07;;;2.80;;
5297;SDS011;14738;42.668;23.250;2024-02-23T12:12:35;3.37;;;2.63;;
5297;SDS011;14738;42.668;23.250;2024-02-23T12:15:01;2.67;;;2.57;;
5297;SDS011;14738;42.668;23.250;2024-02-23T12:17:27;2.40;;;2.30;;
5297;SDS011;14738;42.668;23.250;2024-02-23T12:19:59;8.10;;;2.87;;
5297;SDS011;14738;42.668;23.250;2024-02-23T12:22:24;2.67;;;2.20;;
5297;SDS011;14738;42.668;23.250;2024-02-23T12:24:50;3.13;;;2.37;;
5297;SDS011;14738;42.668;23.250;2024-02-23T12:27:18;3.60;;;3.30;;
5297;SDS011;14738;42.668;23.250;2024-02-23T12:29:53;4.00;;;3.23;;
5297;SDS011;14738;42.668;23.250;2024-02-23T12:32:20;2.70;;;2.50;;
5297;SDS011;14738;42.668;23.250;2024-02-23T12:34:46;2.47;;;2.37;;
5297;SDS011;14738;42.668;23.250;2024-02-23T12:37:15;2.40;;;2.30;;
5297;SDS011;14738;42.668;23.250;2024-02-23T12:39:42;2.63;;;2.53;;
5297;SDS011;14738;42.668;23.250;2024-02-23T12:42:08;4.87;;;3.10;;
5297;SDS011;14738;42.668;23.250;2024-02-23T12:44:33;2.70;;;2.50;;
5297;SDS011;14738;42.668;23.250;2024-02-23T12:46:59;2.53;;;2.33;;
5297;SDS011;14738;42.668;23.250;2024-02-23T12:49:24;2.57;;;2.47;;
5297;SDS011;14738;42.668;23.250;2024-02-23T12:51:49;2.57;;;2.37;;
5297;SDS011;14738;42.668;23.250;2024-02-23T12:54:15;18.93;;;2.73;;
5297;SDS011;14738;42.668;23.250;2024-02-23T12:56:40;5.50;;;3.00;;
5297;SDS011;14738;42.668;23.250;2024-02-23T12:59:06;2.93;;;2.23;;
5297;SDS011;14738;42.668;23.250;2024-02-23T13:01:32;3.13;;;2.87;;
5297;SDS011;14738;42.668;23.250;2024-02-23T13:04:01;5.60;;;3.00;;
5297;SDS011;14738;42.668;23.250;2024-02-23T13:06:27;2.40;;;2.30;;
5297;SDS011;14738;42.668;23.250;2024-02-23T13:08:52;2.97;;;2.67;;
5297;SDS011;14738;42.668;23.250;2024-02-23T13:11:17;2.90;;;2.70;;
5297;SDS011;14738;42.668;23.250;2024-02-23T13:13:43;2.20;;;2.10;;
5297;SDS011;14738;42.668;23.250;2024-02-23T13:16:08;3.90;;;2.67;;
5297;SDS011;14738;42.668;23.250;2024-02-23T13:18:35;2.90;;;2.70;;
5297;SDS011;14738;42.668;23.250;2024-02-23T13:21:00;2.80;;;2.03;;
5297;SDS011;14738;42.668;23.250;2024-02-23T13:23:26;2.70;;;2.50;;
5297;SDS011;14738;42.668;23.250;2024-02-23T13:25:51;3.43;;;2.50;;
5297;SDS011;14738;42.668;23.250;2024-02-23T13:28:16;3.80;;;3.30;;
5297;SDS011;14738;42.668;23.250;2024-02-23T13:30:42;3.07;;;2.80;;
5297;SDS011;14738;42.668;23.250;2024-02-23T13:33:07;2.50;;;2.40;;
5297;SDS011;14738;42.668;23.250;2024-02-23T13:35:35;3.27;;;3.07;;
5297;SDS011;14738;42.668;23.250;2024-02-23T13:38:01;2.67;;;2.47;;
5297;SDS011;14738;42.668;23.250;2024-02-23T13:40:28;2.90;;;2.70;;
5297;SDS011;14738;42.668;23.250;2024-02-23T13:42:55;4.80;;;4.40;;
5297;SDS011;14738;42.668;23.250;2024-02-23T13:45:20;2.80;;;2.60;;
5297;SDS011;14738;42.668;23.250;2024-02-23T13:48:00;3.93;;;2.53;;
5297;SDS011;14738;42.668;23.250;2024-02-23T13:50:27;2.90;;;2.43;;
5297;SDS011;14738;42.668;23.250;2024-02-23T13:52:53;2.90;;;2.53;;
5297;SDS011;14738;42.668;23.250;2024-02-23T13:55:18;9.90;;;3.23;;
5297;SDS011;14738;42.668;23.250;2024-02-23T13:57:47;2.67;;;2.47;;
5297;SDS011;14738;42.668;23.250;2024-02-23T14:00:14;3.53;;;3.17;;
5297;SDS011;14738;42.668;23.250;2024-02-23T14:02:40;3.70;;;3.10;;
5297;SDS011;14738;42.668;23.250;2024-02-23T14:05:06;2.67;;;2.57;;
5297;SDS011;14738;42.668;23.250;2024-02-23T14:07:35;3.17;;;2.87;;
5297;SDS011;14738;42.668;23.250;2024-02-23T14:10:01;5.00;;;2.67;;
5297;SDS011;14738;42.668;23.250;2024-02-23T14:12:27;2.47;;;2.37;;
5297;SDS011;14738;42.668;23.250;2024-02-23T14:14:54;2.53;;;2.43;;
5297;SDS011;14738;42.668;23.250;2024-02-23T14:17:19;2.60;;;2.50;;
5297;SDS011;14738;42.668;23.250;2024-02-23T14:19:44;2.73;;;2.63;;
5297;SDS011;14738;42.668;23.250;2024-02-23T14:22:10;2.70;;;2.00;;
5297;SDS011;14738;42.668;23.250;2024-02-23T14:24:36;3.27;;;2.70;;
5297;SDS011;14738;42.668;23.250;2024-02-23T14:27:01;2.30;;;2.20;;
5297;SDS011;14738;42.668;23.250;2024-02-23T14:29:27;2.77;;;2.60;;
5297;SDS011;14738;42.668;23.250;2024-02-23T14:31:52;3.67;;;3.20;;
5297;SDS011;14738;42.668;23.250;2024-02-23T14:34:18;3.43;;;2.80;;
5297;SDS011;14738;42.668;23.250;2024-02-23T14:36:45;2.93;;;2.73;;
5297;SDS011;14738;42.668;23.250;2024-02-23T14:39:10;3.60;;;3.30;;
5297;SDS011;14738;42.668;23.250;2024-02-23T14:41:37;2.70;;;2.60;;
5297;SDS011;14738;42.668;23.250;2024-02-23T14:44:03;2.83;;;2.70;;
5297;SDS011;14738;42.668;23.250;2024-02-23T14:46:29;3.23;;;2.83;;
5297;SDS011;14738;42.668;23.250;2024-02-23T14:48:54;4.37;;;2.70;;
5297;SDS011;14738;42.668;23.250;2024-02-23T14:51:20;4.10;;;3.70;;
5297;SDS011;14738;42.668;23.250;2024-02-23T14:53:45;2.80;;;2.60;;